sensor_id;sensor_type;location;lat;lon;timestamp;temperature;humidity
15156;DHT22;7678;50.058;8.306;2023-09-07T00:01:06;18.50;96.50
15156;DHT22;7678;50.058;8.306;2023-09-07T00:03:37;18.40;97.10
15156;DHT22;7678;50.058;8.306;2023-09-07T00:06:11;18.30;96.10
15156;DHT22;7678;50.058;8.306;2023-09-07T00:08:41;18.40;97.30
15156;DHT22;7678;50.058;8.306;2023-09-07T00:11:12;18.40;97.00
15156;DHT22;7678;50.058;8.306;2023-09-07T00:13:43;18.30;97.10
15156;DHT22;7678;50.058;8.306;2023-09-07T00:16:11;18.10;97.50
15156;DHT22;7678;50.058;8.306;2023-09-07T00:18:41;18.20;96.90
15156;DHT22;7678;50.058;8.306;2023-09-07T00:21:11;18.40;96.80
15156;DHT22;7678;50.058;8.306;2023-09-07T00:23:40;18.30;97.00
15156;DHT22;7678;50.058;8.306;2023-09-07T00:26:13;18.40;96.10
15156;DHT22;7678;50.058;8.306;2023-09-07T00:28:41;18.60;95.50
15156;DHT22;7678;50.058;8.306;2023-09-07T00:31:10;18.70;94.40
15156;DHT22;7678;50.058;8.306;2023-09-07T00:33:44;18.60;96.10
15156;DHT22;7678;50.058;8.306;2023-09-07T00:36:13;18.30;96.50
15156;DHT22;7678;50.058;8.306;2023-09-07T00:38:43;18.50;95.50
15156;DHT22;7678;50.058;8.306;2023-09-07T00:41:15;18.50;95.50
15156;DHT22;7678;50.058;8.306;2023-09-07T00:43:43;18.40;95.00
15156;DHT22;7678;50.058;8.306;2023-09-07T00:46:12;18.50;95.60
15156;DHT22;7678;50.058;8.306;2023-09-07T00:48:40;18.50;96.30
15156;DHT22;7678;50.058;8.306;2023-09-07T00:51:14;18.10;97.50
15156;DHT22;7678;50.058;8.306;2023-09-07T00:53:43;18.00;98.20
15156;DHT22;7678;50.058;8.306;2023-09-07T00:56:12;17.80;99.20
15156;DHT22;7678;50.058;8.306;2023-09-07T00:58:43;17.80;99.80
15156;DHT22;7678;50.058;8.306;2023-09-07T01:01:15;17.80;99.90
15156;DHT22;7678;50.058;8.306;2023-09-07T01:03:45;17.90;99.90
15156;DHT22;7678;50.058;8.306;2023-09-07T01:06:19;17.90;99.90
15156;DHT22;7678;50.058;8.306;2023-09-07T01:08:55;17.80;99.90
15156;DHT22;7678;50.058;8.306;2023-09-07T01:11:24;17.60;99.90
15156;DHT22;7678;50.058;8.306;2023-09-07T01:13:55;17.60;99.90
15156;DHT22;7678;50.058;8.306;2023-09-07T01:16:25;17.60;99.90
15156;DHT22;7678;50.058;8.306;2023-09-07T01:18:56;17.60;99.90
15156;DHT22;7678;50.058;8.306;2023-09-07T01:21:25;17.70;99.90
15156;DHT22;7678;50.058;8.306;2023-09-07T01:23:57;17.60;99.90
15156;DHT22;7678;50.058;8.306;2023-09-07T01:26:27;17.50;99.90
15156;DHT22;7678;50.058;8.306;2023-09-07T01:28:56;17.50;99.90
15156;DHT22;7678;50.058;8.306;2023-09-07T01:31:25;17.30;99.90
15156;DHT22;7678;50.058;8.306;2023-09-07T01:33:53;17.30;99.90
15156;DHT22;7678;50.058;8.306;2023-09-07T01:36:22;17.40;99.90
15156;DHT22;7678;50.058;8.306;2023-09-07T01:39:00;17.40;99.90
15156;DHT22;7678;50.058;8.306;2023-09-07T01:41:29;17.40;99.90
15156;DHT22;7678;50.058;8.306;2023-09-07T01:43:58;17.30;99.90
15156;DHT22;7678;50.058;8.306;2023-09-07T01:46:28;17.20;99.90
15156;DHT22;7678;50.058;8.306;2023-09-07T01:48:57;17.40;99.90
15156;DHT22;7678;50.058;8.306;2023-09-07T01:51:26;17.50;99.90
15156;DHT22;7678;50.058;8.306;2023-09-07T01:53:55;17.50;99.90
15156;DHT22;7678;50.058;8.306;2023-09-07T01:56:32;17.40;99.90
15156;DHT22;7678;50.058;8.306;2023-09-07T01:59:01;17.50;99.90
15156;DHT22;7678;50.058;8.306;2023-09-07T02:01:31;17.50;99.90
15156;DHT22;7678;50.058;8.306;2023-09-07T02:04:04;17.40;99.90
15156;DHT22;7678;50.058;8.306;2023-09-07T02:06:32;17.30;99.90
15156;DHT22;7678;50.058;8.306;2023-09-07T02:09:00;17.20;99.90
15156;DHT22;7678;50.058;8.306;2023-09-07T02:11:31;17.10;99.90
15156;DHT22;7678;50.058;8.306;2023-09-07T02:13:59;17.00;99.90
15156;DHT22;7678;50.058;8.306;2023-09-07T02:16:28;17.30;99.90
15156;DHT22;7678;50.058;8.306;2023-09-07T02:19:01;17.40;99.90
15156;DHT22;7678;50.058;8.306;2023-09-07T02:21:34;17.40;99.90
15156;DHT22;7678;50.058;8.306;2023-09-07T02:24:11;17.40;99.90
15156;DHT22;7678;50.058;8.306;2023-09-07T02:26:42;17.20;99.90
15156;DHT22;7678;50.058;8.306;2023-09-07T02:29:15;17.20;99.90
15156;DHT22;7678;50.058;8.306;2023-09-07T02:31:44;17.10;99.90
15156;DHT22;7678;50.058;8.306;2023-09-07T02:34:16;17.00;99.90
15156;DHT22;7678;50.058;8.306;2023-09-07T02:36:49;16.90;99.90
15156;DHT22;7678;50.058;8.306;2023-09-07T02:39:18;16.90;99.90
15156;DHT22;7678;50.058;8.306;2023-09-07T02:41:51;17.10;99.90
15156;DHT22;7678;50.058;8.306;2023-09-07T02:44:22;17.20;99.90
15156;DHT22;7678;50.058;8.306;2023-09-07T02:46:52;17.20;99.90
15156;DHT22;7678;50.058;8.306;2023-09-07T02:49:21;17.30;99.90
15156;DHT22;7678;50.058;8.306;2023-09-07T02:51:50;17.30;99.90
15156;DHT22;7678;50.058;8.306;2023-09-07T02:54:19;17.40;99.90
15156;DHT22;7678;50.058;8.306;2023-09-07T02:56:51;17.20;99.90
15156;DHT22;7678;50.058;8.306;2023-09-07T02:59:20;17.20;99.90
15156;DHT22;7678;50.058;8.306;2023-09-07T03:01:51;17.10;99.90
15156;DHT22;7678;50.058;8.306;2023-09-07T03:04:21;17.10;99.90
15156;DHT22;7678;50.058;8.306;2023-09-07T03:06:53;17.00;99.90
15156;DHT22;7678;50.058;8.306;2023-09-07T03:09:21;16.90;99.90
15156;DHT22;7678;50.058;8.306;2023-09-07T03:11:51;17.00;99.90
15156;DHT22;7678;50.058;8.306;2023-09-07T03:14:19;16.90;99.90
15156;DHT22;7678;50.058;8.306;2023-09-07T03:16:48;16.80;99.90
15156;DHT22;7678;50.058;8.306;2023-09-07T03:19:23;16.80;99.90
15156;DHT22;7678;50.058;8.306;2023-09-07T03:21:52;16.70;99.90
15156;DHT22;7678;50.058;8.306;2023-09-07T03:24:22;16.70;99.90
15156;DHT22;7678;50.058;8.306;2023-09-07T03:26:55;16.70;99.90
15156;DHT22;7678;50.058;8.306;2023-09-07T03:29:25;16.80;99.90
15156;DHT22;7678;50.058;8.306;2023-09-07T03:31:53;16.90;99.90
15156;DHT22;7678;50.058;8.306;2023-09-07T03:34:26;16.80;99.90
15156;DHT22;7678;50.058;8.306;2023-09-07T03:36:56;16.90;99.90
15156;DHT22;7678;50.058;8.306;2023-09-07T03:39:24;16.90;99.90
15156;DHT22;7678;50.058;8.306;2023-09-07T03:41:55;17.00;99.90
15156;DHT22;7678;50.058;8.306;2023-09-07T03:44:27;17.00;99.90
15156;DHT22;7678;50.058;8.306;2023-09-07T03:46:56;17.00;99.90
15156;DHT22;7678;50.058;8.306;2023-09-07T03:49:25;16.90;99.90
15156;DHT22;7678;50.058;8.306;2023-09-07T03:51:57;16.80;99.90
15156;DHT22;7678;50.058;8.306;2023-09-07T03:54:25;16.80;99.90
15156;DHT22;7678;50.058;8.306;2023-09-07T03:56:59;16.70;99.90
15156;DHT22;7678;50.058;8.306;2023-09-07T03:59:27;16.60;99.90
15156;DHT22;7678;50.058;8.306;2023-09-07T04:01:55;16.70;99.90
15156;DHT22;7678;50.058;8.306;2023-09-07T04:04:31;16.70;99.90
15156;DHT22;7678;50.058;8.306;2023-09-07T04:07:00;16.90;99.90
15156;DHT22;7678;50.058;8.306;2023-09-07T04:09:31;16.80;99.90
15156;DHT22;7678;50.058;8.306;2023-09-07T04:12:01;17.00;99.90
15156;DHT22;7678;50.058;8.306;2023-09-07T04:14:30;17.00;99.90
15156;DHT22;7678;50.058;8.306;2023-09-07T04:16:59;16.90;99.90
15156;DHT22;7678;50.058;8.306;2023-09-07T04:19:28;16.90;99.90
15156;DHT22;7678;50.058;8.306;2023-09-07T04:21:57;16.90;99.90
15156;DHT22;7678;50.058;8.306;2023-09-07T04:24:30;17.10;99.90
15156;DHT22;7678;50.058;8.306;2023-09-07T04:27:01;17.30;99.90
15156;DHT22;7678;50.058;8.306;2023-09-07T04:29:38;17.30;99.90
15156;DHT22;7678;50.058;8.306;2023-09-07T04:32:06;17.30;99.90
15156;DHT22;7678;50.058;8.306;2023-09-07T04:34:34;17.20;99.90
15156;DHT22;7678;50.058;8.306;2023-09-07T04:37:05;17.10;99.90
15156;DHT22;7678;50.058;8.306;2023-09-07T04:39:35;16.90;99.90
15156;DHT22;7678;50.058;8.306;2023-09-07T04:42:08;16.90;99.90
15156;DHT22;7678;50.058;8.306;2023-09-07T04:44:36;16.90;99.90
15156;DHT22;7678;50.058;8.306;2023-09-07T04:47:08;16.80;99.90
15156;DHT22;7678;50.058;8.306;2023-09-07T04:49:39;16.90;99.90
15156;DHT22;7678;50.058;8.306;2023-09-07T04:52:07;17.20;99.90
15156;DHT22;7678;50.058;8.306;2023-09-07T04:54:37;17.50;99.90
15156;DHT22;7678;50.058;8.306;2023-09-07T04:57:05;17.70;99.90
15156;DHT22;7678;50.058;8.306;2023-09-07T04:59:35;17.70;99.90
15156;DHT22;7678;50.058;8.306;2023-09-07T05:02:04;17.80;99.90
15156;DHT22;7678;50.058;8.306;2023-09-07T05:04:33;17.80;99.90
15156;DHT22;7678;50.058;8.306;2023-09-07T05:07:01;17.90;99.90
15156;DHT22;7678;50.058;8.306;2023-09-07T05:09:31;17.90;99.90
15156;DHT22;7678;50.058;8.306;2023-09-07T05:12:00;17.80;99.90
15156;DHT22;7678;50.058;8.306;2023-09-07T05:14:29;17.80;99.90
15156;DHT22;7678;50.058;8.306;2023-09-07T05:16:59;17.80;99.90
15156;DHT22;7678;50.058;8.306;2023-09-07T05:19:28;18.10;99.90
15156;DHT22;7678;50.058;8.306;2023-09-07T05:21:59;18.20;99.90
15156;DHT22;7678;50.058;8.306;2023-09-07T05:24:28;18.40;99.90
15156;DHT22;7678;50.058;8.306;2023-09-07T05:27:00;18.40;99.90
15156;DHT22;7678;50.058;8.306;2023-09-07T05:29:30;18.50;99.90
15156;DHT22;7678;50.058;8.306;2023-09-07T05:31:59;18.60;99.90
15156;DHT22;7678;50.058;8.306;2023-09-07T05:34:30;18.50;99.90
15156;DHT22;7678;50.058;8.306;2023-09-07T05:36:59;18.40;99.90
15156;DHT22;7678;50.058;8.306;2023-09-07T05:39:28;18.40;99.90
15156;DHT22;7678;50.058;8.306;2023-09-07T05:41:56;18.50;99.90
15156;DHT22;7678;50.058;8.306;2023-09-07T05:44:32;18.60;99.90
15156;DHT22;7678;50.058;8.306;2023-09-07T05:47:04;18.70;99.90
15156;DHT22;7678;50.058;8.306;2023-09-07T05:49:38;18.80;99.90
15156;DHT22;7678;50.058;8.306;2023-09-07T05:52:07;18.90;99.90
15156;DHT22;7678;50.058;8.306;2023-09-07T05:54:37;18.80;99.90
15156;DHT22;7678;50.058;8.306;2023-09-07T05:57:06;18.80;99.90
15156;DHT22;7678;50.058;8.306;2023-09-07T06:02:29;19.00;99.90
15156;DHT22;7678;50.058;8.306;2023-09-07T06:04:59;19.10;99.90
15156;DHT22;7678;50.058;8.306;2023-09-07T06:07:28;19.20;99.90
15156;DHT22;7678;50.058;8.306;2023-09-07T06:09:58;19.30;99.90
15156;DHT22;7678;50.058;8.306;2023-09-07T06:12:31;19.30;99.90
15156;DHT22;7678;50.058;8.306;2023-09-07T06:14:59;19.30;99.90
15156;DHT22;7678;50.058;8.306;2023-09-07T06:17:29;19.30;99.90
15156;DHT22;7678;50.058;8.306;2023-09-07T06:19:57;19.40;99.90
15156;DHT22;7678;50.058;8.306;2023-09-07T06:22:29;19.40;99.90
15156;DHT22;7678;50.058;8.306;2023-09-07T06:24:57;19.50;99.90
15156;DHT22;7678;50.058;8.306;2023-09-07T06:27:25;19.60;99.90
15156;DHT22;7678;50.058;8.306;2023-09-07T06:29:54;19.60;99.90
15156;DHT22;7678;50.058;8.306;2023-09-07T06:32:23;19.60;99.90
15156;DHT22;7678;50.058;8.306;2023-09-07T06:34:52;19.70;99.90
15156;DHT22;7678;50.058;8.306;2023-09-07T06:37:21;19.60;99.90
15156;DHT22;7678;50.058;8.306;2023-09-07T06:39:51;19.60;99.90
15156;DHT22;7678;50.058;8.306;2023-09-07T06:42:19;19.70;99.90
15156;DHT22;7678;50.058;8.306;2023-09-07T06:44:47;19.80;99.90
15156;DHT22;7678;50.058;8.306;2023-09-07T06:47:17;19.80;99.90
15156;DHT22;7678;50.058;8.306;2023-09-07T06:49:51;19.80;99.90
15156;DHT22;7678;50.058;8.306;2023-09-07T06:52:22;19.90;99.90
15156;DHT22;7678;50.058;8.306;2023-09-07T06:54:53;19.90;99.90
15156;DHT22;7678;50.058;8.306;2023-09-07T06:57:23;20.00;99.90
15156;DHT22;7678;50.058;8.306;2023-09-07T06:59:55;20.00;99.90
15156;DHT22;7678;50.058;8.306;2023-09-07T07:02:30;20.10;99.90
15156;DHT22;7678;50.058;8.306;2023-09-07T07:05:04;20.20;99.90
15156;DHT22;7678;50.058;8.306;2023-09-07T07:07:34;20.20;99.90
15156;DHT22;7678;50.058;8.306;2023-09-07T07:10:07;20.30;99.90
15156;DHT22;7678;50.058;8.306;2023-09-07T07:12:39;20.30;99.90
15156;DHT22;7678;50.058;8.306;2023-09-07T07:15:09;20.30;99.90
15156;DHT22;7678;50.058;8.306;2023-09-07T07:17:38;20.40;99.90
15156;DHT22;7678;50.058;8.306;2023-09-07T07:20:12;20.50;99.90
15156;DHT22;7678;50.058;8.306;2023-09-07T07:22:42;20.40;99.90
15156;DHT22;7678;50.058;8.306;2023-09-07T07:25:11;20.50;99.90
15156;DHT22;7678;50.058;8.306;2023-09-07T07:27:39;20.60;99.90
15156;DHT22;7678;50.058;8.306;2023-09-07T07:30:08;20.60;99.90
15156;DHT22;7678;50.058;8.306;2023-09-07T07:32:38;20.60;99.90
15156;DHT22;7678;50.058;8.306;2023-09-07T07:35:08;20.70;99.90
15156;DHT22;7678;50.058;8.306;2023-09-07T07:37:37;20.80;99.60
15156;DHT22;7678;50.058;8.306;2023-09-07T07:40:08;20.70;99.30
15156;DHT22;7678;50.058;8.306;2023-09-07T07:42:37;20.80;99.10
15156;DHT22;7678;50.058;8.306;2023-09-07T07:45:06;20.90;99.90
15156;DHT22;7678;50.058;8.306;2023-09-07T07:47:36;20.90;99.00
15156;DHT22;7678;50.058;8.306;2023-09-07T07:50:08;21.00;99.20
15156;DHT22;7678;50.058;8.306;2023-09-07T07:52:38;21.00;98.50
15156;DHT22;7678;50.058;8.306;2023-09-07T07:55:08;21.10;98.30
15156;DHT22;7678;50.058;8.306;2023-09-07T07:57:36;21.20;98.60
15156;DHT22;7678;50.058;8.306;2023-09-07T08:00:06;21.20;97.70
15156;DHT22;7678;50.058;8.306;2023-09-07T08:02:42;21.10;97.60
15156;DHT22;7678;50.058;8.306;2023-09-07T08:05:16;21.20;98.30
15156;DHT22;7678;50.058;8.306;2023-09-07T08:07:48;21.20;97.90
15156;DHT22;7678;50.058;8.306;2023-09-07T08:10:20;21.30;98.00
15156;DHT22;7678;50.058;8.306;2023-09-07T08:12:51;21.40;97.30
15156;DHT22;7678;50.058;8.306;2023-09-07T08:15:20;21.40;97.00
15156;DHT22;7678;50.058;8.306;2023-09-07T08:17:52;21.50;96.80
15156;DHT22;7678;50.058;8.306;2023-09-07T08:20:24;21.50;96.30
15156;DHT22;7678;50.058;8.306;2023-09-07T08:23:03;21.70;95.50
15156;DHT22;7678;50.058;8.306;2023-09-07T08:25:34;21.80;95.80
15156;DHT22;7678;50.058;8.306;2023-09-07T08:28:04;21.80;96.20
15156;DHT22;7678;50.058;8.306;2023-09-07T08:30:35;22.00;96.30
15156;DHT22;7678;50.058;8.306;2023-09-07T08:33:04;21.90;94.80
15156;DHT22;7678;50.058;8.306;2023-09-07T08:35:35;22.00;94.20
15156;DHT22;7678;50.058;8.306;2023-09-07T08:38:11;22.20;94.90
15156;DHT22;7678;50.058;8.306;2023-09-07T08:40:41;22.40;94.70
15156;DHT22;7678;50.058;8.306;2023-09-07T08:43:11;22.30;94.20
15156;DHT22;7678;50.058;8.306;2023-09-07T08:45:45;22.40;93.80
15156;DHT22;7678;50.058;8.306;2023-09-07T08:48:19;22.40;93.40
15156;DHT22;7678;50.058;8.306;2023-09-07T08:50:50;22.40;93.00
15156;DHT22;7678;50.058;8.306;2023-09-07T08:53:19;22.50;93.50
15156;DHT22;7678;50.058;8.306;2023-09-07T08:55:48;22.70;92.60
15156;DHT22;7678;50.058;8.306;2023-09-07T08:58:17;22.90;92.20
15156;DHT22;7678;50.058;8.306;2023-09-07T09:00:45;22.80;92.50
15156;DHT22;7678;50.058;8.306;2023-09-07T09:03:13;23.00;92.50
15156;DHT22;7678;50.058;8.306;2023-09-07T09:05:43;22.90;92.50
15156;DHT22;7678;50.058;8.306;2023-09-07T09:08:17;22.90;92.10
15156;DHT22;7678;50.058;8.306;2023-09-07T09:11:02;22.80;92.40
15156;DHT22;7678;50.058;8.306;2023-09-07T09:13:37;23.00;91.20
15156;DHT22;7678;50.058;8.306;2023-09-07T09:16:07;23.10;91.20
15156;DHT22;7678;50.058;8.306;2023-09-07T09:18:47;23.00;91.20
15156;DHT22;7678;50.058;8.306;2023-09-07T09:21:16;23.20;90.60
15156;DHT22;7678;50.058;8.306;2023-09-07T09:23:50;23.20;90.70
15156;DHT22;7678;50.058;8.306;2023-09-07T09:26:19;23.10;91.00
15156;DHT22;7678;50.058;8.306;2023-09-07T09:28:56;23.20;90.70
15156;DHT22;7678;50.058;8.306;2023-09-07T09:31:26;23.10;90.30
15156;DHT22;7678;50.058;8.306;2023-09-07T09:33:55;23.00;90.10
15156;DHT22;7678;50.058;8.306;2023-09-07T09:36:32;23.10;90.50
15156;DHT22;7678;50.058;8.306;2023-09-07T09:39:02;23.00;90.10
15156;DHT22;7678;50.058;8.306;2023-09-07T09:41:32;23.10;89.80
15156;DHT22;7678;50.058;8.306;2023-09-07T09:44:03;23.40;90.00
15156;DHT22;7678;50.058;8.306;2023-09-07T09:46:32;23.40;90.50
15156;DHT22;7678;50.058;8.306;2023-09-07T09:49:01;23.50;89.50
15156;DHT22;7678;50.058;8.306;2023-09-07T09:51:30;23.50;90.10
15156;DHT22;7678;50.058;8.306;2023-09-07T09:54:05;23.80;89.30
15156;DHT22;7678;50.058;8.306;2023-09-07T09:56:34;23.50;89.70
15156;DHT22;7678;50.058;8.306;2023-09-07T09:59:03;23.80;90.00
15156;DHT22;7678;50.058;8.306;2023-09-07T10:01:38;23.90;88.80
15156;DHT22;7678;50.058;8.306;2023-09-07T10:04:14;24.10;88.30
15156;DHT22;7678;50.058;8.306;2023-09-07T10:06:53;23.80;87.80
15156;DHT22;7678;50.058;8.306;2023-09-07T10:09:29;23.90;87.90
15156;DHT22;7678;50.058;8.306;2023-09-07T10:12:01;23.90;87.30
15156;DHT22;7678;50.058;8.306;2023-09-07T10:14:38;24.10;87.20
15156;DHT22;7678;50.058;8.306;2023-09-07T10:17:07;23.90;86.90
15156;DHT22;7678;50.058;8.306;2023-09-07T10:19:36;23.80;86.30
15156;DHT22;7678;50.058;8.306;2023-09-07T10:22:08;24.00;85.90
15156;DHT22;7678;50.058;8.306;2023-09-07T10:24:39;24.30;84.90
15156;DHT22;7678;50.058;8.306;2023-09-07T10:27:14;24.40;83.50
15156;DHT22;7678;50.058;8.306;2023-09-07T10:29:43;24.50;84.10
15156;DHT22;7678;50.058;8.306;2023-09-07T10:32:22;24.40;85.00
15156;DHT22;7678;50.058;8.306;2023-09-07T10:34:52;24.60;83.60
15156;DHT22;7678;50.058;8.306;2023-09-07T10:37:29;24.40;84.20
15156;DHT22;7678;50.058;8.306;2023-09-07T10:40:03;24.80;82.60
15156;DHT22;7678;50.058;8.306;2023-09-07T10:42:39;24.60;82.60
15156;DHT22;7678;50.058;8.306;2023-09-07T10:45:12;24.40;83.00
15156;DHT22;7678;50.058;8.306;2023-09-07T10:47:43;24.40;83.20
15156;DHT22;7678;50.058;8.306;2023-09-07T10:50:13;24.60;83.30
15156;DHT22;7678;50.058;8.306;2023-09-07T10:52:41;24.70;81.00
15156;DHT22;7678;50.058;8.306;2023-09-07T10:55:14;24.80;80.10
15156;DHT22;7678;50.058;8.306;2023-09-07T10:57:45;24.80;79.70
15156;DHT22;7678;50.058;8.306;2023-09-07T11:00:16;25.00;80.50
15156;DHT22;7678;50.058;8.306;2023-09-07T11:02:44;25.00;79.40
15156;DHT22;7678;50.058;8.306;2023-09-07T11:05:13;24.90;78.90
15156;DHT22;7678;50.058;8.306;2023-09-07T11:07:47;25.20;77.70
15156;DHT22;7678;50.058;8.306;2023-09-07T11:10:16;25.30;77.30
15156;DHT22;7678;50.058;8.306;2023-09-07T11:12:46;25.30;76.40
15156;DHT22;7678;50.058;8.306;2023-09-07T11:15:19;25.50;76.90
15156;DHT22;7678;50.058;8.306;2023-09-07T11:17:47;25.50;75.70
15156;DHT22;7678;50.058;8.306;2023-09-07T11:20:15;25.60;76.20
15156;DHT22;7678;50.058;8.306;2023-09-07T11:22:44;25.70;77.20
15156;DHT22;7678;50.058;8.306;2023-09-07T11:25:36;25.70;77.20
15156;DHT22;7678;50.058;8.306;2023-09-07T11:28:06;25.90;76.50
15156;DHT22;7678;50.058;8.306;2023-09-07T11:30:34;25.70;75.90
15156;DHT22;7678;50.058;8.306;2023-09-07T11:33:06;25.70;77.30
15156;DHT22;7678;50.058;8.306;2023-09-07T11:35:37;25.80;76.80
15156;DHT22;7678;50.058;8.306;2023-09-07T11:38:08;26.10;75.90
15156;DHT22;7678;50.058;8.306;2023-09-07T11:40:39;26.40;74.10
15156;DHT22;7678;50.058;8.306;2023-09-07T11:43:12;26.50;75.40
15156;DHT22;7678;50.058;8.306;2023-09-07T11:45:46;26.30;74.30
15156;DHT22;7678;50.058;8.306;2023-09-07T11:48:19;26.30;74.50
15156;DHT22;7678;50.058;8.306;2023-09-07T11:50:47;26.30;73.90
15156;DHT22;7678;50.058;8.306;2023-09-07T11:53:15;26.60;73.60
15156;DHT22;7678;50.058;8.306;2023-09-07T11:55:49;26.60;73.20
15156;DHT22;7678;50.058;8.306;2023-09-07T11:58:17;26.70;71.50
15156;DHT22;7678;50.058;8.306;2023-09-07T12:00:47;26.70;72.80
15156;DHT22;7678;50.058;8.306;2023-09-07T12:03:18;26.80;72.80
15156;DHT22;7678;50.058;8.306;2023-09-07T12:05:46;27.00;71.20
15156;DHT22;7678;50.058;8.306;2023-09-07T12:08:16;27.10;71.00
15156;DHT22;7678;50.058;8.306;2023-09-07T12:10:50;27.30;69.70
15156;DHT22;7678;50.058;8.306;2023-09-07T12:13:18;27.30;70.10
15156;DHT22;7678;50.058;8.306;2023-09-07T12:15:46;27.30;69.80
15156;DHT22;7678;50.058;8.306;2023-09-07T12:18:15;27.30;70.20
15156;DHT22;7678;50.058;8.306;2023-09-07T12:20:44;27.50;68.80
15156;DHT22;7678;50.058;8.306;2023-09-07T12:23:12;27.40;68.30
15156;DHT22;7678;50.058;8.306;2023-09-07T12:25:41;27.40;67.50
15156;DHT22;7678;50.058;8.306;2023-09-07T12:28:12;27.50;66.70
15156;DHT22;7678;50.058;8.306;2023-09-07T12:30:48;27.60;66.80
15156;DHT22;7678;50.058;8.306;2023-09-07T12:33:17;27.60;66.70
15156;DHT22;7678;50.058;8.306;2023-09-07T12:35:46;27.70;65.50
15156;DHT22;7678;50.058;8.306;2023-09-07T12:38:15;27.90;65.40
15156;DHT22;7678;50.058;8.306;2023-09-07T12:40:44;27.90;66.30
15156;DHT22;7678;50.058;8.306;2023-09-07T12:43:14;27.70;64.50
15156;DHT22;7678;50.058;8.306;2023-09-07T12:45:43;27.80;64.30
15156;DHT22;7678;50.058;8.306;2023-09-07T12:48:12;27.90;64.30
15156;DHT22;7678;50.058;8.306;2023-09-07T12:50:41;27.90;64.20
15156;DHT22;7678;50.058;8.306;2023-09-07T12:53:10;27.80;63.70
15156;DHT22;7678;50.058;8.306;2023-09-07T12:55:40;27.70;63.50
15156;DHT22;7678;50.058;8.306;2023-09-07T12:58:09;28.10;62.40
15156;DHT22;7678;50.058;8.306;2023-09-07T13:00:39;28.30;61.50
15156;DHT22;7678;50.058;8.306;2023-09-07T13:03:07;28.20;61.50
15156;DHT22;7678;50.058;8.306;2023-09-07T13:05:36;28.40;62.10
15156;DHT22;7678;50.058;8.306;2023-09-07T13:08:04;28.20;61.30
15156;DHT22;7678;50.058;8.306;2023-09-07T13:10:33;28.30;61.20
15156;DHT22;7678;50.058;8.306;2023-09-07T13:13:02;28.40;62.00
15156;DHT22;7678;50.058;8.306;2023-09-07T13:15:32;28.40;61.00
15156;DHT22;7678;50.058;8.306;2023-09-07T13:18:02;28.30;61.10
15156;DHT22;7678;50.058;8.306;2023-09-07T13:20:33;28.20;60.70
15156;DHT22;7678;50.058;8.306;2023-09-07T13:23:02;28.50;61.40
15156;DHT22;7678;50.058;8.306;2023-09-07T13:25:32;28.50;61.00
15156;DHT22;7678;50.058;8.306;2023-09-07T13:28:02;28.50;59.80
15156;DHT22;7678;50.058;8.306;2023-09-07T13:30:30;28.80;59.70
15156;DHT22;7678;50.058;8.306;2023-09-07T13:32:59;28.70;59.20
15156;DHT22;7678;50.058;8.306;2023-09-07T13:35:29;28.60;59.40
15156;DHT22;7678;50.058;8.306;2023-09-07T13:37:57;28.70;59.70
15156;DHT22;7678;50.058;8.306;2023-09-07T13:40:26;28.60;58.50
15156;DHT22;7678;50.058;8.306;2023-09-07T13:42:56;28.60;59.30
15156;DHT22;7678;50.058;8.306;2023-09-07T13:45:25;28.70;59.40
15156;DHT22;7678;50.058;8.306;2023-09-07T13:47:53;28.80;59.40
15156;DHT22;7678;50.058;8.306;2023-09-07T13:50:22;29.00;57.70
15156;DHT22;7678;50.058;8.306;2023-09-07T13:52:54;29.00;57.90
15156;DHT22;7678;50.058;8.306;2023-09-07T13:55:23;28.80;58.30
15156;DHT22;7678;50.058;8.306;2023-09-07T13:57:53;28.90;58.30
15156;DHT22;7678;50.058;8.306;2023-09-07T14:00:22;29.20;58.30
15156;DHT22;7678;50.058;8.306;2023-09-07T14:02:51;28.90;57.60
15156;DHT22;7678;50.058;8.306;2023-09-07T14:05:21;28.80;56.80
15156;DHT22;7678;50.058;8.306;2023-09-07T14:07:49;28.80;57.20
15156;DHT22;7678;50.058;8.306;2023-09-07T14:10:19;28.80;56.10
15156;DHT22;7678;50.058;8.306;2023-09-07T14:12:47;28.80;55.50
15156;DHT22;7678;50.058;8.306;2023-09-07T14:15:16;28.70;55.80
15156;DHT22;7678;50.058;8.306;2023-09-07T14:17:44;28.80;55.70
15156;DHT22;7678;50.058;8.306;2023-09-07T14:20:12;28.90;54.50
15156;DHT22;7678;50.058;8.306;2023-09-07T14:22:40;29.10;53.40
15156;DHT22;7678;50.058;8.306;2023-09-07T14:25:10;29.00;55.20
15156;DHT22;7678;50.058;8.306;2023-09-07T14:27:40;28.60;56.30
15156;DHT22;7678;50.058;8.306;2023-09-07T14:30:09;28.70;57.70
15156;DHT22;7678;50.058;8.306;2023-09-07T14:32:37;29.00;55.60
15156;DHT22;7678;50.058;8.306;2023-09-07T14:35:06;28.70;55.20
15156;DHT22;7678;50.058;8.306;2023-09-07T14:37:36;28.60;56.20
15156;DHT22;7678;50.058;8.306;2023-09-07T14:40:05;28.80;56.60
15156;DHT22;7678;50.058;8.306;2023-09-07T14:42:34;28.70;55.70
15156;DHT22;7678;50.058;8.306;2023-09-07T14:45:05;28.70;56.40
15156;DHT22;7678;50.058;8.306;2023-09-07T14:47:34;28.80;56.00
15156;DHT22;7678;50.058;8.306;2023-09-07T14:50:03;28.60;56.70
15156;DHT22;7678;50.058;8.306;2023-09-07T14:52:31;28.60;56.00
15156;DHT22;7678;50.058;8.306;2023-09-07T14:55:05;28.60;55.90
15156;DHT22;7678;50.058;8.306;2023-09-07T14:57:33;28.80;56.50
15156;DHT22;7678;50.058;8.306;2023-09-07T15:00:01;28.50;55.40
15156;DHT22;7678;50.058;8.306;2023-09-07T15:02:31;28.50;56.70
15156;DHT22;7678;50.058;8.306;2023-09-07T15:05:01;28.80;55.50
15156;DHT22;7678;50.058;8.306;2023-09-07T15:07:32;28.80;54.70
15156;DHT22;7678;50.058;8.306;2023-09-07T15:10:00;28.80;54.70
15156;DHT22;7678;50.058;8.306;2023-09-07T15:12:29;28.70;55.20
15156;DHT22;7678;50.058;8.306;2023-09-07T15:14:57;28.60;55.00
15156;DHT22;7678;50.058;8.306;2023-09-07T15:17:25;28.60;54.80
15156;DHT22;7678;50.058;8.306;2023-09-07T15:19:55;28.50;55.10
15156;DHT22;7678;50.058;8.306;2023-09-07T15:22:23;28.40;55.10
15156;DHT22;7678;50.058;8.306;2023-09-07T15:24:53;28.50;53.60
15156;DHT22;7678;50.058;8.306;2023-09-07T15:27:22;28.60;53.70
15156;DHT22;7678;50.058;8.306;2023-09-07T15:29:50;28.60;53.40
15156;DHT22;7678;50.058;8.306;2023-09-07T15:32:19;28.60;52.80
15156;DHT22;7678;50.058;8.306;2023-09-07T15:34:47;28.50;52.90
15156;DHT22;7678;50.058;8.306;2023-09-07T15:37:19;28.50;53.80
15156;DHT22;7678;50.058;8.306;2023-09-07T15:39:47;28.40;53.90
15156;DHT22;7678;50.058;8.306;2023-09-07T15:42:17;28.40;54.50
15156;DHT22;7678;50.058;8.306;2023-09-07T15:44:45;28.30;53.90
15156;DHT22;7678;50.058;8.306;2023-09-07T15:47:15;28.40;54.60
15156;DHT22;7678;50.058;8.306;2023-09-07T15:49:44;28.40;54.70
15156;DHT22;7678;50.058;8.306;2023-09-07T15:52:19;28.40;54.50
15156;DHT22;7678;50.058;8.306;2023-09-07T15:54:47;28.40;53.70
15156;DHT22;7678;50.058;8.306;2023-09-07T15:57:17;28.50;53.50
15156;DHT22;7678;50.058;8.306;2023-09-07T15:59:47;28.50;53.10
15156;DHT22;7678;50.058;8.306;2023-09-07T16:02:17;28.50;52.90
15156;DHT22;7678;50.058;8.306;2023-09-07T16:04:46;28.50;53.40
15156;DHT22;7678;50.058;8.306;2023-09-07T16:07:18;28.40;53.50